sensor_id;sensor_type;location;lat;lon;timestamp;temperature;humidity
34776;DHT22;20989;52.566;13.346;2023-04-15T00:01:00;19.50;48.10
34776;DHT22;20989;52.566;13.346;2023-04-15T00:04:00;19.50;48.00
34776;DHT22;20989;52.566;13.346;2023-04-15T00:07:01;19.50;48.20
34776;DHT22;20989;52.566;13.346;2023-04-15T00:10:02;19.50;48.20
34776;DHT22;20989;52.566;13.346;2023-04-15T00:13:03;19.50;48.00
34776;DHT22;20989;52.566;13.346;2023-04-15T00:16:05;19.50;48.30
34776;DHT22;20989;52.566;13.346;2023-04-15T00:19:06;19.50;48.10
34776;DHT22;20989;52.566;13.346;2023-04-15T00:22:07;19.40;48.10
34776;DHT22;20989;52.566;13.346;2023-04-15T00:25:08;19.50;48.00
34776;DHT22;20989;52.566;13.346;2023-04-15T00:28:09;19.50;48.10
34776;DHT22;20989;52.566;13.346;2023-04-15T00:31:11;19.50;48.00
34776;DHT22;20989;52.566;13.346;2023-04-15T00:34:11;19.50;48.20
34776;DHT22;20989;52.566;13.346;2023-04-15T00:37:12;19.40;48.10
34776;DHT22;20989;52.566;13.346;2023-04-15T00:40:16;19.50;48.30
34776;DHT22;20989;52.566;13.346;2023-04-15T00:43:18;19.40;48.10
34776;DHT22;20989;52.566;13.346;2023-04-15T00:46:19;19.50;48.20
34776;DHT22;20989;52.566;13.346;2023-04-15T00:49:20;19.40;48.10
34776;DHT22;20989;52.566;13.346;2023-04-15T00:52:21;19.40;48.30
34776;DHT22;20989;52.566;13.346;2023-04-15T00:55:22;19.40;48.20
34776;DHT22;20989;52.566;13.346;2023-04-15T00:58:25;19.40;48.10
34776;DHT22;20989;52.566;13.346;2023-04-15T01:01:25;19.50;48.20
34776;DHT22;20989;52.566;13.346;2023-04-15T01:04:26;19.40;48.10
34776;DHT22;20989;52.566;13.346;2023-04-15T01:07:27;19.50;48.30
34776;DHT22;20989;52.566;13.346;2023-04-15T01:10:27;19.40;48.20
34776;DHT22;20989;52.566;13.346;2023-04-15T01:13:28;19.50;48.20
34776;DHT22;20989;52.566;13.346;2023-04-15T01:16:30;19.40;48.20
34776;DHT22;20989;52.566;13.346;2023-04-15T01:19:31;19.40;48.10
34776;DHT22;20989;52.566;13.346;2023-04-15T01:22:32;19.40;48.20
34776;DHT22;20989;52.566;13.346;2023-04-15T01:25:34;19.40;48.20
34776;DHT22;20989;52.566;13.346;2023-04-15T01:28:35;19.40;48.20
34776;DHT22;20989;52.566;13.346;2023-04-15T01:31:36;19.40;48.10
34776;DHT22;20989;52.566;13.346;2023-04-15T01:34:36;19.40;48.20
34776;DHT22;20989;52.566;13.346;2023-04-15T01:37:37;19.40;48.20
34776;DHT22;20989;52.566;13.346;2023-04-15T01:40:37;19.40;48.10
34776;DHT22;20989;52.566;13.346;2023-04-15T01:43:38;19.40;48.10
34776;DHT22;20989;52.566;13.346;2023-04-15T01:46:39;19.40;48.20
34776;DHT22;20989;52.566;13.346;2023-04-15T01:49:39;19.40;48.20
34776;DHT22;20989;52.566;13.346;2023-04-15T01:52:40;19.40;48.20
34776;DHT22;20989;52.566;13.346;2023-04-15T01:55:41;19.40;48.10
34776;DHT22;20989;52.566;13.346;2023-04-15T01:58:42;19.40;48.20
34776;DHT22;20989;52.566;13.346;2023-04-15T02:01:42;19.40;48.80
34776;DHT22;20989;52.566;13.346;2023-04-15T02:04:44;19.40;48.20
34776;DHT22;20989;52.566;13.346;2023-04-15T02:07:45;19.40;48.10
34776;DHT22;20989;52.566;13.346;2023-04-15T02:10:45;19.40;48.10
34776;DHT22;20989;52.566;13.346;2023-04-15T02:13:46;19.40;48.20
34776;DHT22;20989;52.566;13.346;2023-04-15T02:16:47;19.40;48.20
34776;DHT22;20989;52.566;13.346;2023-04-15T02:19:48;19.40;48.20
34776;DHT22;20989;52.566;13.346;2023-04-15T02:22:48;19.40;48.40
34776;DHT22;20989;52.566;13.346;2023-04-15T02:25:49;19.40;48.10
34776;DHT22;20989;52.566;13.346;2023-04-15T02:28:50;19.40;48.30
34776;DHT22;20989;52.566;13.346;2023-04-15T02:31:50;19.30;48.30
34776;DHT22;20989;52.566;13.346;2023-04-15T02:34:51;19.30;48.20
34776;DHT22;20989;52.566;13.346;2023-04-15T02:37:52;19.40;48.30
34776;DHT22;20989;52.566;13.346;2023-04-15T02:40:53;19.40;48.20
34776;DHT22;20989;52.566;13.346;2023-04-15T02:43:53;19.40;48.20
34776;DHT22;20989;52.566;13.346;2023-04-15T02:46:54;19.40;48.30
34776;DHT22;20989;52.566;13.346;2023-04-15T02:49:55;19.30;48.20
34776;DHT22;20989;52.566;13.346;2023-04-15T02:52:55;19.40;48.20
34776;DHT22;20989;52.566;13.346;2023-04-15T02:55:56;19.40;48.10
34776;DHT22;20989;52.566;13.346;2023-04-15T02:58:56;19.30;48.20
34776;DHT22;20989;52.566;13.346;2023-04-15T03:01:57;19.30;48.20
34776;DHT22;20989;52.566;13.346;2023-04-15T03:05:01;19.40;48.20
34776;DHT22;20989;52.566;13.346;2023-04-15T03:08:02;19.30;48.00
34776;DHT22;20989;52.566;13.346;2023-04-15T03:11:03;19.30;48.40
34776;DHT22;20989;52.566;13.346;2023-04-15T03:14:03;19.40;48.30
34776;DHT22;20989;52.566;13.346;2023-04-15T03:17:04;19.30;48.30
34776;DHT22;20989;52.566;13.346;2023-04-15T03:20:05;19.30;48.10
34776;DHT22;20989;52.566;13.346;2023-04-15T03:23:06;19.40;48.30
34776;DHT22;20989;52.566;13.346;2023-04-15T03:26:07;19.30;48.20
34776;DHT22;20989;52.566;13.346;2023-04-15T03:29:07;19.30;48.20
34776;DHT22;20989;52.566;13.346;2023-04-15T03:32:08;19.30;48.10
34776;DHT22;20989;52.566;13.346;2023-04-15T03:35:09;19.30;48.30
34776;DHT22;20989;52.566;13.346;2023-04-15T03:38:09;19.30;48.40
34776;DHT22;20989;52.566;13.346;2023-04-15T03:41:10;19.30;48.10
34776;DHT22;20989;52.566;13.346;2023-04-15T03:44:11;19.30;48.20
34776;DHT22;20989;52.566;13.346;2023-04-15T03:47:11;19.30;48.20
34776;DHT22;20989;52.566;13.346;2023-04-15T03:50:12;19.30;48.20
34776;DHT22;20989;52.566;13.346;2023-04-15T03:53:14;19.30;48.30
34776;DHT22;20989;52.566;13.346;2023-04-15T03:56:14;19.30;48.20
34776;DHT22;20989;52.566;13.346;2023-04-15T03:59:15;19.30;48.20
34776;DHT22;20989;52.566;13.346;2023-04-15T04:02:16;19.40;48.50
34776;DHT22;20989;52.566;13.346;2023-04-15T04:05:16;19.30;48.20
34776;DHT22;20989;52.566;13.346;2023-04-15T04:08:17;19.30;48.30
34776;DHT22;20989;52.566;13.346;2023-04-15T04:11:18;19.30;48.20
34776;DHT22;20989;52.566;13.346;2023-04-15T04:14:20;19.30;48.20
34776;DHT22;20989;52.566;13.346;2023-04-15T04:17:25;19.30;48.20
34776;DHT22;20989;52.566;13.346;2023-04-15T04:20:26;19.30;48.10
34776;DHT22;20989;52.566;13.346;2023-04-15T04:23:27;19.30;48.10
34776;DHT22;20989;52.566;13.346;2023-04-15T04:26:27;19.30;48.30
34776;DHT22;20989;52.566;13.346;2023-04-15T04:29:28;19.30;48.30
34776;DHT22;20989;52.566;13.346;2023-04-15T04:32:28;19.30;48.20
34776;DHT22;20989;52.566;13.346;2023-04-15T04:35:29;19.30;48.20
34776;DHT22;20989;52.566;13.346;2023-04-15T04:38:30;19.30;48.20
34776;DHT22;20989;52.566;13.346;2023-04-15T04:41:30;19.30;48.50
34776;DHT22;20989;52.566;13.346;2023-04-15T04:44:31;19.30;48.20
34776;DHT22;20989;52.566;13.346;2023-04-15T04:47:32;19.30;48.30
34776;DHT22;20989;52.566;13.346;2023-04-15T04:50:34;19.30;48.30
34776;DHT22;20989;52.566;13.346;2023-04-15T04:53:34;19.30;48.30
34776;DHT22;20989;52.566;13.346;2023-04-15T04:56:37;19.30;48.40
34776;DHT22;20989;52.566;13.346;2023-04-15T05:03:35;19.30;48.30
34776;DHT22;20989;52.566;13.346;2023-04-15T05:06:37;19.30;48.20
34776;DHT22;20989;52.566;13.346;2023-04-15T05:09:37;19.30;48.20
34776;DHT22;20989;52.566;13.346;2023-04-15T05:12:38;19.30;48.20
34776;DHT22;20989;52.566;13.346;2023-04-15T05:15:39;19.30;48.30
34776;DHT22;20989;52.566;13.346;2023-04-15T05:18:40;19.30;48.30
34776;DHT22;20989;52.566;13.346;2023-04-15T05:21:41;19.30;48.20
34776;DHT22;20989;52.566;13.346;2023-04-15T05:24:42;19.30;48.30
34776;DHT22;20989;52.566;13.346;2023-04-15T05:27:42;19.30;48.20
34776;DHT22;20989;52.566;13.346;2023-04-15T05:30:43;19.30;48.30
34776;DHT22;20989;52.566;13.346;2023-04-15T05:33:44;19.30;48.30
34776;DHT22;20989;52.566;13.346;2023-04-15T05:36:44;19.30;48.30
34776;DHT22;20989;52.566;13.346;2023-04-15T05:39:45;19.30;48.30
34776;DHT22;20989;52.566;13.346;2023-04-15T05:42:46;19.30;48.50
34776;DHT22;20989;52.566;13.346;2023-04-15T05:45:46;19.30;48.30
34776;DHT22;20989;52.566;13.346;2023-04-15T05:48:47;19.30;48.20
34776;DHT22;20989;52.566;13.346;2023-04-15T05:51:47;19.20;48.40
34776;DHT22;20989;52.566;13.346;2023-04-15T05:54:48;19.30;48.20
34776;DHT22;20989;52.566;13.346;2023-04-15T05:57:49;19.20;48.20
34776;DHT22;20989;52.566;13.346;2023-04-15T06:00:49;19.20;48.20
34776;DHT22;20989;52.566;13.346;2023-04-15T06:03:50;19.30;48.30
34776;DHT22;20989;52.566;13.346;2023-04-15T06:06:51;19.20;48.30
34776;DHT22;20989;52.566;13.346;2023-04-15T06:09:51;19.30;48.30
34776;DHT22;20989;52.566;13.346;2023-04-15T06:12:52;19.30;48.30
34776;DHT22;20989;52.566;13.346;2023-04-15T06:15:53;19.30;48.20
34776;DHT22;20989;52.566;13.346;2023-04-15T06:18:54;19.30;48.30
34776;DHT22;20989;52.566;13.346;2023-04-15T06:21:54;19.30;48.20
34776;DHT22;20989;52.566;13.346;2023-04-15T06:24:55;19.30;48.30
34776;DHT22;20989;52.566;13.346;2023-04-15T06:27:56;19.30;48.50
34776;DHT22;20989;52.566;13.346;2023-04-15T06:30:56;19.30;48.30
34776;DHT22;20989;52.566;13.346;2023-04-15T06:33:57;19.30;48.50
34776;DHT22;20989;52.566;13.346;2023-04-15T06:36:57;19.30;48.30
34776;DHT22;20989;52.566;13.346;2023-04-15T06:39:58;19.30;48.50
34776;DHT22;20989;52.566;13.346;2023-04-15T06:42:58;19.30;48.30
34776;DHT22;20989;52.566;13.346;2023-04-15T06:45:59;19.30;48.60
34776;DHT22;20989;52.566;13.346;2023-04-15T06:49:00;19.20;48.20
34776;DHT22;20989;52.566;13.346;2023-04-15T06:52:01;19.20;48.40
34776;DHT22;20989;52.566;13.346;2023-04-15T06:55:02;19.20;48.20
34776;DHT22;20989;52.566;13.346;2023-04-15T06:58:02;19.20;48.30
34776;DHT22;20989;52.566;13.346;2023-04-15T07:01:03;19.20;48.30
34776;DHT22;20989;52.566;13.346;2023-04-15T07:04:04;19.30;48.60
34776;DHT22;20989;52.566;13.346;2023-04-15T07:07:05;19.20;48.40
34776;DHT22;20989;52.566;13.346;2023-04-15T07:10:07;19.20;48.30
34776;DHT22;20989;52.566;13.346;2023-04-15T07:13:08;19.20;48.30
34776;DHT22;20989;52.566;13.346;2023-04-15T07:16:09;19.20;48.60
34776;DHT22;20989;52.566;13.346;2023-04-15T07:19:09;19.30;48.30
34776;DHT22;20989;52.566;13.346;2023-04-15T07:22:10;19.20;48.40
34776;DHT22;20989;52.566;13.346;2023-04-15T07:25:10;19.20;48.30
34776;DHT22;20989;52.566;13.346;2023-04-15T07:28:11;19.30;48.40
34776;DHT22;20989;52.566;13.346;2023-04-15T07:31:12;19.20;48.40
34776;DHT22;20989;52.566;13.346;2023-04-15T07:34:13;19.20;48.40
34776;DHT22;20989;52.566;13.346;2023-04-15T07:37:14;19.30;48.40
34776;DHT22;20989;52.566;13.346;2023-04-15T07:40:14;19.20;49.30
34776;DHT22;20989;52.566;13.346;2023-04-15T07:43:15;19.20;48.30
34776;DHT22;20989;52.566;13.346;2023-04-15T07:46:16;19.20;48.40
34776;DHT22;20989;52.566;13.346;2023-04-15T07:49:16;19.30;48.40
34776;DHT22;20989;52.566;13.346;2023-04-15T07:52:18;19.20;48.40
34776;DHT22;20989;52.566;13.346;2023-04-15T07:55:19;19.20;48.50
34776;DHT22;20989;52.566;13.346;2023-04-15T07:58:22;19.20;48.50
34776;DHT22;20989;52.566;13.346;2023-04-15T08:01:22;19.20;48.50
34776;DHT22;20989;52.566;13.346;2023-04-15T08:04:23;19.20;48.30
34776;DHT22;20989;52.566;13.346;2023-04-15T08:07:24;19.20;48.30
34776;DHT22;20989;52.566;13.346;2023-04-15T08:10:24;19.30;48.30
34776;DHT22;20989;52.566;13.346;2023-04-15T08:13:25;19.30;48.40
34776;DHT22;20989;52.566;13.346;2023-04-15T08:16:26;19.30;48.40
34776;DHT22;20989;52.566;13.346;2023-04-15T08:19:27;19.20;48.40
34776;DHT22;20989;52.566;13.346;2023-04-15T08:22:28;19.30;48.40
34776;DHT22;20989;52.566;13.346;2023-04-15T08:25:29;19.20;48.40
34776;DHT22;20989;52.566;13.346;2023-04-15T08:28:29;19.20;48.30
34776;DHT22;20989;52.566;13.346;2023-04-15T08:31:30;19.20;48.40
34776;DHT22;20989;52.566;13.346;2023-04-15T08:34:31;19.20;48.40
34776;DHT22;20989;52.566;13.346;2023-04-15T08:37:32;19.20;48.30
34776;DHT22;20989;52.566;13.346;2023-04-15T08:40:42;19.20;48.40
34776;DHT22;20989;52.566;13.346;2023-04-15T08:43:57;19.20;48.60
34776;DHT22;20989;52.566;13.346;2023-04-15T08:47:01;19.20;48.20
34776;DHT22;20989;52.566;13.346;2023-04-15T08:50:03;19.20;48.30
34776;DHT22;20989;52.566;13.346;2023-04-15T08:53:04;19.20;48.30
34776;DHT22;20989;52.566;13.346;2023-04-15T08:56:06;19.20;48.50
34776;DHT22;20989;52.566;13.346;2023-04-15T08:59:09;19.20;48.40
34776;DHT22;20989;52.566;13.346;2023-04-15T09:02:11;19.30;48.40
34776;DHT22;20989;52.566;13.346;2023-04-15T09:05:11;19.20;48.50
34776;DHT22;20989;52.566;13.346;2023-04-15T09:08:12;19.20;48.50
34776;DHT22;20989;52.566;13.346;2023-04-15T09:11:13;19.20;48.40
34776;DHT22;20989;52.566;13.346;2023-04-15T09:14:13;19.30;48.50
34776;DHT22;20989;52.566;13.346;2023-04-15T09:17:18;19.30;48.40
34776;DHT22;20989;52.566;13.346;2023-04-15T09:20:19;19.30;48.30
34776;DHT22;20989;52.566;13.346;2023-04-15T09:23:19;19.40;48.30
34776;DHT22;20989;52.566;13.346;2023-04-15T09:26:33;19.40;48.30
34776;DHT22;20989;52.566;13.346;2023-04-15T09:29:34;19.30;48.30
34776;DHT22;20989;52.566;13.346;2023-04-15T09:32:34;19.40;48.40
34776;DHT22;20989;52.566;13.346;2023-04-15T09:35:35;19.40;48.30
34776;DHT22;20989;52.566;13.346;2023-04-15T09:38:56;19.40;48.30
34776;DHT22;20989;52.566;13.346;2023-04-15T09:42:07;19.40;48.30
34776;DHT22;20989;52.566;13.346;2023-04-15T09:45:11;19.40;48.30
34776;DHT22;20989;52.566;13.346;2023-04-15T09:48:20;19.30;48.60
34776;DHT22;20989;52.566;13.346;2023-04-15T09:51:33;19.40;48.60
34776;DHT22;20989;52.566;13.346;2023-04-15T09:54:36;19.40;48.30
34776;DHT22;20989;52.566;13.346;2023-04-15T09:57:38;19.50;48.50
34776;DHT22;20989;52.566;13.346;2023-04-15T10:00:40;19.50;48.30
34776;DHT22;20989;52.566;13.346;2023-04-15T10:03:41;19.50;48.40
34776;DHT22;20989;52.566;13.346;2023-04-15T10:06:43;19.50;48.20
34776;DHT22;20989;52.566;13.346;2023-04-15T10:09:45;19.60;48.40
34776;DHT22;20989;52.566;13.346;2023-04-15T10:12:46;19.70;48.10
34776;DHT22;20989;52.566;13.346;2023-04-15T10:15:55;19.70;48.00
34776;DHT22;20989;52.566;13.346;2023-04-15T10:18:57;19.80;48.00
34776;DHT22;20989;52.566;13.346;2023-04-15T10:22:00;19.80;48.00
34776;DHT22;20989;52.566;13.346;2023-04-15T10:25:01;19.80;48.00
34776;DHT22;20989;52.566;13.346;2023-04-15T10:28:07;19.90;48.00
34776;DHT22;20989;52.566;13.346;2023-04-15T10:31:11;19.90;48.10
34776;DHT22;20989;52.566;13.346;2023-04-15T10:34:16;19.80;48.20
34776;DHT22;20989;52.566;13.346;2023-04-15T10:37:22;19.80;48.20
34776;DHT22;20989;52.566;13.346;2023-04-15T10:40:32;19.80;48.20
34776;DHT22;20989;52.566;13.346;2023-04-15T10:43:36;19.80;48.20
34776;DHT22;20989;52.566;13.346;2023-04-15T10:46:38;19.90;48.30
34776;DHT22;20989;52.566;13.346;2023-04-15T10:49:48;19.80;48.20
34776;DHT22;20989;52.566;13.346;2023-04-15T10:52:50;19.80;48.30
34776;DHT22;20989;52.566;13.346;2023-04-15T10:55:51;19.90;48.40
34776;DHT22;20989;52.566;13.346;2023-04-15T10:58:52;19.90;48.30
34776;DHT22;20989;52.566;13.346;2023-04-15T11:01:55;19.90;48.30
34776;DHT22;20989;52.566;13.346;2023-04-15T11:04:57;19.90;48.40
34776;DHT22;20989;52.566;13.346;2023-04-15T11:07:58;19.90;48.40
34776;DHT22;20989;52.566;13.346;2023-04-15T11:10:58;19.90;48.40
34776;DHT22;20989;52.566;13.346;2023-04-15T11:13:59;19.90;48.40
34776;DHT22;20989;52.566;13.346;2023-04-15T11:17:03;19.90;48.40
34776;DHT22;20989;52.566;13.346;2023-04-15T11:20:05;20.00;48.30
34776;DHT22;20989;52.566;13.346;2023-04-15T11:23:07;20.10;48.20
34776;DHT22;20989;52.566;13.346;2023-04-15T11:26:09;20.10;48.10
34776;DHT22;20989;52.566;13.346;2023-04-15T11:29:16;20.10;48.20
34776;DHT22;20989;52.566;13.346;2023-04-15T11:32:17;20.00;48.30
34776;DHT22;20989;52.566;13.346;2023-04-15T11:35:18;20.00;48.40
34776;DHT22;20989;52.566;13.346;2023-04-15T11:38:19;20.00;48.50
34776;DHT22;20989;52.566;13.346;2023-04-15T11:41:20;20.00;48.40
34776;DHT22;20989;52.566;13.346;2023-04-15T11:44:21;20.00;48.50
34776;DHT22;20989;52.566;13.346;2023-04-15T11:47:23;20.10;48.40
34776;DHT22;20989;52.566;13.346;2023-04-15T11:50:23;20.10;48.70
34776;DHT22;20989;52.566;13.346;2023-04-15T11:56:38;20.10;48.70
34776;DHT22;20989;52.566;13.346;2023-04-15T11:59:42;20.00;48.50
34776;DHT22;20989;52.566;13.346;2023-04-15T12:02:43;20.00;48.50
34776;DHT22;20989;52.566;13.346;2023-04-15T12:06:13;20.10;48.60
34776;DHT22;20989;52.566;13.346;2023-04-15T12:09:18;20.10;48.70
34776;DHT22;20989;52.566;13.346;2023-04-15T12:12:19;20.20;48.40
34776;DHT22;20989;52.566;13.346;2023-04-15T12:15:23;20.30;48.50
34776;DHT22;20989;52.566;13.346;2023-04-15T12:18:25;20.10;48.60
34776;DHT22;20989;52.566;13.346;2023-04-15T12:21:27;20.20;48.60
34776;DHT22;20989;52.566;13.346;2023-04-15T12:24:32;20.30;48.40
34776;DHT22;20989;52.566;13.346;2023-04-15T12:27:33;20.30;48.40
34776;DHT22;20989;52.566;13.346;2023-04-15T12:30:35;20.30;48.50
34776;DHT22;20989;52.566;13.346;2023-04-15T12:33:36;20.30;48.60
34776;DHT22;20989;52.566;13.346;2023-04-15T12:36:37;20.20;48.60
34776;DHT22;20989;52.566;13.346;2023-04-15T12:39:40;20.10;48.70
34776;DHT22;20989;52.566;13.346;2023-04-15T12:42:41;20.10;48.70
34776;DHT22;20989;52.566;13.346;2023-04-15T12:45:41;20.10;48.80
34776;DHT22;20989;52.566;13.346;2023-04-15T12:48:42;20.10;48.80
34776;DHT22;20989;52.566;13.346;2023-04-15T12:51:43;20.20;48.80
34776;DHT22;20989;52.566;13.346;2023-04-15T12:54:44;20.20;49.40
34776;DHT22;20989;52.566;13.346;2023-04-15T12:57:44;20.20;48.90
34776;DHT22;20989;52.566;13.346;2023-04-15T13:00:45;20.10;48.90
34776;DHT22;20989;52.566;13.346;2023-04-15T13:03:46;20.10;48.90
34776;DHT22;20989;52.566;13.346;2023-04-15T13:06:47;20.10;48.90
34776;DHT22;20989;52.566;13.346;2023-04-15T13:09:48;20.10;48.80
34776;DHT22;20989;52.566;13.346;2023-04-15T13:12:49;20.10;48.80
34776;DHT22;20989;52.566;13.346;2023-04-15T13:15:52;20.10;48.80
34776;DHT22;20989;52.566;13.346;2023-04-15T13:18:53;20.10;48.80
34776;DHT22;20989;52.566;13.346;2023-04-15T13:21:54;20.10;48.80
34776;DHT22;20989;52.566;13.346;2023-04-15T13:24:54;20.10;48.80
34776;DHT22;20989;52.566;13.346;2023-04-15T13:27:55;20.10;48.80
34776;DHT22;20989;52.566;13.346;2023-04-15T13:30:57;20.10;48.70
34776;DHT22;20989;52.566;13.346;2023-04-15T13:33:57;20.10;48.80
34776;DHT22;20989;52.566;13.346;2023-04-15T13:36:58;20.10;49.90
34776;DHT22;20989;52.566;13.346;2023-04-15T13:39:58;20.20;50.20
34776;DHT22;20989;52.566;13.346;2023-04-15T13:42:59;20.30;49.60
34776;DHT22;20989;52.566;13.346;2023-04-15T13:46:00;20.30;49.60
34776;DHT22;20989;52.566;13.346;2023-04-15T13:49:01;20.20;49.90
34776;DHT22;20989;52.566;13.346;2023-04-15T13:52:01;20.00;49.80
34776;DHT22;20989;52.566;13.346;2023-04-15T13:55:02;20.00;49.90
34776;DHT22;20989;52.566;13.346;2023-04-15T13:58:03;19.80;50.60
34776;DHT22;20989;52.566;13.346;2023-04-15T14:01:05;19.80;50.40
34776;DHT22;20989;52.566;13.346;2023-04-15T14:04:05;19.80;50.50
34776;DHT22;20989;52.566;13.346;2023-04-15T14:07:06;19.80;50.70
34776;DHT22;20989;52.566;13.346;2023-04-15T14:10:07;19.70;51.20
34776;DHT22;20989;52.566;13.346;2023-04-15T14:13:07;19.70;51.10
34776;DHT22;20989;52.566;13.346;2023-04-15T14:16:08;19.70;51.30
34776;DHT22;20989;52.566;13.346;2023-04-15T14:19:09;19.70;51.20
34776;DHT22;20989;52.566;13.346;2023-04-15T14:22:09;19.70;51.10
34776;DHT22;20989;52.566;13.346;2023-04-15T14:25:10;19.60;51.50
34776;DHT22;20989;52.566;13.346;2023-04-15T14:28:11;19.60;51.10
34776;DHT22;20989;52.566;13.346;2023-04-15T14:31:11;19.60;51.20
34776;DHT22;20989;52.566;13.346;2023-04-15T14:34:13;19.60;51.90
34776;DHT22;20989;52.566;13.346;2023-04-15T14:37:13;19.60;51.20
34776;DHT22;20989;52.566;13.346;2023-04-15T14:40:14;19.70;51.20
34776;DHT22;20989;52.566;13.346;2023-04-15T14:43:15;19.60;51.20
34776;DHT22;20989;52.566;13.346;2023-04-15T14:46:16;19.60;51.30
34776;DHT22;20989;52.566;13.346;2023-04-15T14:49:17;19.60;51.80
34776;DHT22;20989;52.566;13.346;2023-04-15T14:52:17;19.60;51.40
34776;DHT22;20989;52.566;13.346;2023-04-15T14:55:18;19.60;51.40
34776;DHT22;20989;52.566;13.346;2023-04-15T14:58:18;19.60;52.00
34776;DHT22;20989;52.566;13.346;2023-04-15T15:01:19;19.60;51.60
34776;DHT22;20989;52.566;13.346;2023-04-15T15:04:20;19.60;52.70
34776;DHT22;20989;52.566;13.346;2023-04-15T15:07:22;19.70;52.60
34776;DHT22;20989;52.566;13.346;2023-04-15T15:10:23;19.90;53.10
34776;DHT22;20989;52.566;13.346;2023-04-15T15:13:23;19.90;52.60
34776;DHT22;20989;52.566;13.346;2023-04-15T15:16:24;19.90;53.40
34776;DHT22;20989;52.566;13.346;2023-04-15T15:19:25;20.10;53.80
34776;DHT22;20989;52.566;13.346;2023-04-15T15:22:26;20.10;53.30
34776;DHT22;20989;52.566;13.346;2023-04-15T15:25:27;20.10;53.40
34776;DHT22;20989;52.566;13.346;2023-04-15T15:28:28;20.20;53.40
34776;DHT22;20989;52.566;13.346;2023-04-15T15:31:28;20.20;52.80
34776;DHT22;20989;52.566;13.346;2023-04-15T15:34:29;20.30;53.10
34776;DHT22;20989;52.566;13.346;2023-04-15T15:37:30;20.30;53.00
34776;DHT22;20989;52.566;13.346;2023-04-15T15:40:30;20.30;53.00
34776;DHT22;20989;52.566;13.346;2023-04-15T15:43:31;20.40;52.90
34776;DHT22;20989;52.566;13.346;2023-04-15T15:46:32;20.30;52.70
34776;DHT22;20989;52.566;13.346;2023-04-15T15:49:32;20.30;52.80
34776;DHT22;20989;52.566;13.346;2023-04-15T15:52:33;20.50;52.70
34776;DHT22;20989;52.566;13.346;2023-04-15T15:55:34;20.50;52.30
34776;DHT22;20989;52.566;13.346;2023-04-15T15:58:34;20.70;51.60
34776;DHT22;20989;52.566;13.346;2023-04-15T16:01:35;20.60;51.70
34776;DHT22;20989;52.566;13.346;2023-04-15T16:04:37;20.60;52.00
34776;DHT22;20989;52.566;13.346;2023-04-15T16:07:37;20.50;52.60
34776;DHT22;20989;52.566;13.346;2023-04-15T16:10:38;20.50;52.70
34776;DHT22;20989;52.566;13.346;2023-04-15T16:13:39;20.50;52.30
34776;DHT22;20989;52.566;13.346;2023-04-15T16:16:39;20.50;52.30
34776;DHT22;20989;52.566;13.346;2023-04-15T16:19:40;20.50;51.80
34776;DHT22;20989;52.566;13.346;2023-04-15T16:22:41;20.40;52.30
34776;DHT22;20989;52.566;13.346;2023-04-15T16:25:42;20.50;52.10
34776;DHT22;20989;52.566;13.346;2023-04-15T16:28:43;20.50;51.90
34776;DHT22;20989;52.566;13.346;2023-04-15T16:31:46;20.50;51.90
34776;DHT22;20989;52.566;13.346;2023-04-15T16:34:46;20.50;52.00
34776;DHT22;20989;52.566;13.346;2023-04-15T16:37:47;20.60;51.80
34776;DHT22;20989;52.566;13.346;2023-04-15T16:40:48;20.50;51.70
34776;DHT22;20989;52.566;13.346;2023-04-15T16:43:48;20.50;51.80
34776;DHT22;20989;52.566;13.346;2023-04-15T16:46:49;20.50;51.60
34776;DHT22;20989;52.566;13.346;2023-04-15T16:49:50;20.60;51.60
34776;DHT22;20989;52.566;13.346;2023-04-15T16:52:50;20.70;50.90
34776;DHT22;20989;52.566;13.346;2023-04-15T16:55:52;20.90;51.10
34776;DHT22;20989;52.566;13.346;2023-04-15T16:58:52;20.90;50.90
34776;DHT22;20989;52.566;13.346;2023-04-15T17:01:53;20.60;51.10
34776;DHT22;20989;52.566;13.346;2023-04-15T17:04:54;20.50;51.30
34776;DHT22;20989;52.566;13.346;2023-04-15T17:07:55;20.30;51.50
34776;DHT22;20989;52.566;13.346;2023-04-15T17:10:56;20.30;51.70
34776;DHT22;20989;52.566;13.346;2023-04-15T17:13:57;20.30;51.60
34776;DHT22;20989;52.566;13.346;2023-04-15T17:16:58;20.20;51.60
34776;DHT22;20989;52.566;13.346;2023-04-15T17:19:59;20.20;51.60
34776;DHT22;20989;52.566;13.346;2023-04-15T17:22:59;20.20;51.50
34776;DHT22;20989;52.566;13.346;2023-04-15T17:26:00;20.10;51.60
34776;DHT22;20989;52.566;13.346;2023-04-15T17:29:01;20.10;51.50
34776;DHT22;20989;52.566;13.346;2023-04-15T17:32:01;20.10;51.60
34776;DHT22;20989;52.566;13.346;2023-04-15T17:35:03;20.10;51.60
34776;DHT22;20989;52.566;13.346;2023-04-15T17:38:05;20.10;51.50
34776;DHT22;20989;52.566;13.346;2023-04-15T17:41:06;20.10;51.50
34776;DHT22;20989;52.566;13.346;2023-04-15T17:44:07;20.10;51.50
34776;DHT22;20989;52.566;13.346;2023-04-15T17:47:07;20.00;51.40
34776;DHT22;20989;52.566;13.346;2023-04-15T17:50:08;20.10;51.40
34776;DHT22;20989;52.566;13.346;2023-04-15T17:53:09;20.00;51.40
34776;DHT22;20989;52.566;13.346;2023-04-15T17:56:09;20.00;51.30
34776;DHT22;20989;52.566;13.346;2023-04-15T17:59:10;20.00;51.30
34776;DHT22;20989;52.566;13.346;2023-04-15T18:02:11;20.00;51.30
34776;DHT22;20989;52.566;13.346;2023-04-15T18:05:11;20.00;51.30
34776;DHT22;20989;52.566;13.346;2023-04-15T18:08:12;20.00;51.30
34776;DHT22;20989;52.566;13.346;2023-04-15T18:11:13;20.00;51.20
34776;DHT22;20989;52.566;13.346;2023-04-15T18:14:13;20.00;51.20
34776;DHT22;20989;52.566;13.346;2023-04-15T18:17:14;20.00;51.10
34776;DHT22;20989;52.566;13.346;2023-04-15T18:20:15;20.00;51.10
34776;DHT22;20989;52.566;13.346;2023-04-15T18:23:15;20.00;51.10
34776;DHT22;20989;52.566;13.346;2023-04-15T18:26:16;20.00;51.10
34776;DHT22;20989;52.566;13.346;2023-04-15T18:29:16;20.00;51.00
34776;DHT22;20989;52.566;13.346;2023-04-15T18:32:17;20.00;51.00
34776;DHT22;20989;52.566;13.346;2023-04-15T18:35:18;20.00;51.00
34776;DHT22;20989;52.566;13.346;2023-04-15T18:38:20;20.00;50.90
34776;DHT22;20989;52.566;13.346;2023-04-15T18:41:21;20.00;50.90
34776;DHT22;20989;52.566;13.346;2023-04-15T18:44:22;20.00;50.90
34776;DHT22;20989;52.566;13.346;2023-04-15T18:47:24;19.90;50.80
34776;DHT22;20989;52.566;13.346;2023-04-15T18:50:25;19.90;50.80
34776;DHT22;20989;52.566;13.346;2023-04-15T18:53:25;20.00;50.90